createdAt,value
2022-10-29T00:00:17.761Z,1014.96
2022-10-29T00:01:17.845Z,1014.96
2022-10-29T00:02:17.770Z,1014.98
2022-10-29T00:03:17.804Z,1014.98
2022-10-29T00:04:17.719Z,1015.02
2022-10-29T00:05:17.811Z,1015.01
2022-10-29T00:06:17.690Z,1015.02
2022-10-29T00:07:17.693Z,1015.02
2022-10-29T00:08:17.680Z,1015.00
2022-10-29T00:09:17.672Z,1014.96
2022-10-29T00:10:17.671Z,1014.95
2022-10-29T00:11:17.646Z,1014.96
2022-10-29T00:12:17.675Z,1014.96
2022-10-29T00:13:17.624Z,1014.94
2022-10-29T00:14:17.993Z,1014.94
2022-10-29T00:15:17.602Z,1014.88
2022-10-29T00:16:17.597Z,1014.91
2022-10-29T00:17:17.573Z,1014.93
2022-10-29T00:18:17.554Z,1014.90
2022-10-29T00:19:17.556Z,1014.91
2022-10-29T00:20:17.557Z,1014.95
2022-10-29T00:21:17.524Z,1014.89
2022-10-29T00:22:17.513Z,1014.92
2022-10-29T00:23:17.509Z,1014.92
2022-10-29T00:24:17.666Z,1014.87
2022-10-29T00:25:17.496Z,1014.89
2022-10-29T00:26:17.636Z,1014.88
2022-10-29T00:27:17.465Z,1014.83
2022-10-29T00:28:17.456Z,1014.83
2022-10-29T00:29:17.450Z,1014.79
2022-10-29T00:30:17.446Z,1014.81
2022-10-29T00:31:17.448Z,1014.83
2022-10-29T00:32:17.546Z,1014.86
2022-10-29T00:33:17.389Z,1014.87
2022-10-29T00:34:17.527Z,1014.84
2022-10-29T00:35:17.391Z,1014.85
2022-10-29T00:36:17.358Z,1014.82
2022-10-29T00:37:17.358Z,1014.86
2022-10-29T00:38:17.482Z,1014.93
2022-10-29T00:39:17.338Z,1014.92
2022-10-29T00:40:17.521Z,1014.96
2022-10-29T00:41:17.323Z,1014.97
2022-10-29T00:42:17.290Z,1014.98
2022-10-29T00:43:17.290Z,1014.98
2022-10-29T00:44:17.380Z,1014.99
2022-10-29T00:45:17.268Z,1014.97
2022-10-29T00:46:17.250Z,1015.01
2022-10-29T00:47:17.250Z,1015.00
2022-10-29T00:48:17.222Z,1014.99
2022-10-29T00:49:17.231Z,1014.96
2022-10-29T00:50:17.210Z,1014.98
2022-10-29T00:51:17.202Z,1014.98
2022-10-29T00:52:17.332Z,1015.02
2022-10-29T00:53:17.183Z,1015.01
2022-10-29T00:54:17.405Z,1015.01
2022-10-29T00:55:17.154Z,1015.03
2022-10-29T00:56:17.495Z,1015.00
2022-10-29T00:57:17.135Z,1015.01
2022-10-29T00:58:17.130Z,1015.03
2022-10-29T00:59:17.144Z,1015.05
2022-10-29T01:00:17.105Z,1015.03
2022-10-29T01:01:17.213Z,1015.02
2022-10-29T01:02:17.160Z,1015.04
2022-10-29T01:03:17.079Z,1015.03
2022-10-29T01:04:17.538Z,1015.05
2022-10-29T01:05:17.061Z,1015.05
2022-10-29T01:06:17.217Z,1015.02
2022-10-29T01:07:17.050Z,1015.04
2022-10-29T01:08:17.007Z,1015.03
2022-10-29T01:09:17.011Z,1015.05
2022-10-29T01:10:17.249Z,1015.03
2022-10-29T01:11:16.984Z,1015.04
2022-10-29T01:12:16.968Z,1015.06
2022-10-29T01:14:16.970Z,1015.02
2022-10-29T01:15:16.929Z,1015.04
2022-10-29T01:16:16.920Z,1015.04
2022-10-29T01:17:17.886Z,1015.07
2022-10-29T01:18:17.132Z,1015.06
2022-10-29T01:19:16.979Z,1015.02
2022-10-29T01:20:17.091Z,1015.00
2022-10-29T01:21:16.869Z,1014.94
2022-10-29T01:22:17.052Z,1014.95
2022-10-29T01:23:16.863Z,1014.93
2022-10-29T01:24:16.852Z,1014.96
2022-10-29T01:25:16.829Z,1014.99
2022-10-29T01:26:16.830Z,1014.96
2022-10-29T01:27:16.802Z,1014.98
2022-10-29T01:28:16.968Z,1014.97
2022-10-29T01:29:16.814Z,1015.00
2022-10-29T01:30:17.352Z,1014.99
2022-10-29T01:31:16.773Z,1014.98
2022-10-29T01:32:16.952Z,1015.00
2022-10-29T01:33:16.749Z,1014.99
2022-10-29T01:34:17.194Z,1015.02
2022-10-29T01:35:16.723Z,1014.96
2022-10-29T01:36:16.754Z,1014.99
2022-10-29T01:37:16.695Z,1015.00
2022-10-29T01:38:16.785Z,1015.02
2022-10-29T01:39:16.675Z,1015.04
2022-10-29T01:40:17.115Z,1015.02
2022-10-29T01:41:16.655Z,1015.02
2022-10-29T01:42:16.644Z,1014.97
2022-10-29T01:43:16.701Z,1014.97
2022-10-29T01:44:16.657Z,1014.90
2022-10-29T01:45:16.610Z,1014.88
2022-10-29T01:46:16.708Z,1014.85
2022-10-29T01:47:16.619Z,1014.85
2022-10-29T01:48:16.575Z,1014.83
2022-10-29T01:49:16.579Z,1014.84
2022-10-29T01:50:16.776Z,1014.82
2022-10-29T01:51:16.533Z,1014.80
2022-10-29T01:52:16.977Z,1014.79
2022-10-29T01:53:16.510Z,1014.75
2022-10-29T01:54:16.519Z,1014.74
2022-10-29T01:55:16.489Z,1014.71
2022-10-29T01:56:16.481Z,1014.68
2022-10-29T01:57:16.470Z,1014.69
2022-10-29T01:59:28.756Z,1014.70
2022-10-29T02:00:17.444Z,1014.69
2022-10-29T02:01:16.472Z,1014.68
2022-10-29T02:02:16.464Z,1014.69
2022-10-29T02:03:16.402Z,1014.68
2022-10-29T02:04:16.460Z,1014.68
2022-10-29T02:05:16.380Z,1014.63
2022-10-29T02:06:16.565Z,1014.60
2022-10-29T02:07:16.364Z,1014.61
2022-10-29T02:08:16.663Z,1014.53
2022-10-29T02:09:16.344Z,1014.53
2022-10-29T02:10:16.378Z,1014.51
2022-10-29T02:11:16.317Z,1014.54
2022-10-29T02:12:16.492Z,1014.53
2022-10-29T02:13:16.325Z,1014.53
2022-10-29T02:14:16.468Z,1014.52
2022-10-29T02:15:16.274Z,1014.55
2022-10-29T02:16:16.725Z,1014.51
2022-10-29T02:17:16.245Z,1014.52
2022-10-29T02:18:16.635Z,1014.50
2022-10-29T02:19:16.250Z,1014.49
2022-10-29T02:20:16.268Z,1014.46
2022-10-29T02:21:16.196Z,1014.44
2022-10-29T02:22:16.225Z,1014.44
2022-10-29T02:23:16.179Z,1014.44
2022-10-29T02:24:16.325Z,1014.42
2022-10-29T02:25:16.215Z,1014.47
2022-10-29T02:26:16.376Z,1014.49
2022-10-29T02:27:16.137Z,1014.47
2022-10-29T02:28:16.580Z,1014.47
2022-10-29T02:29:16.128Z,1014.48
2022-10-29T02:30:16.389Z,1014.52
2022-10-29T02:31:16.107Z,1014.51
2022-10-29T02:32:16.079Z,1014.50
2022-10-29T02:33:16.058Z,1014.51
2022-10-29T02:34:16.200Z,1014.52
2022-10-29T02:35:16.054Z,1014.47
2022-10-29T02:36:16.103Z,1014.55
2022-10-29T02:37:16.094Z,1014.52
2022-10-29T02:38:16.252Z,1014.51
2022-10-29T02:39:15.991Z,1014.48
2022-10-29T02:40:16.126Z,1014.49
2022-10-29T02:41:15.979Z,1014.50
2022-10-29T02:42:15.979Z,1014.53
2022-10-29T02:43:16.003Z,1014.51
2022-10-29T02:44:16.103Z,1014.54
2022-10-29T02:45:15.929Z,1014.59
2022-10-29T02:46:16.011Z,1014.60
2022-10-29T02:47:15.921Z,1014.53
2022-10-29T02:48:16.506Z,1014.55
2022-10-29T02:49:15.904Z,1014.51
2022-10-29T02:50:16.583Z,1014.53
2022-10-29T02:51:15.874Z,1014.51
2022-10-29T02:52:16.054Z,1014.44
2022-10-29T02:53:15.834Z,1014.43
2022-10-29T02:54:16.058Z,1014.41
2022-10-29T02:55:15.824Z,1014.39
2022-10-29T02:56:16.065Z,1014.37
2022-10-29T02:57:15.818Z,1014.29
2022-10-29T02:58:16.001Z,1014.29
2022-10-29T02:59:15.786Z,1014.25
2022-10-29T03:00:15.856Z,1014.24
2022-10-29T03:01:15.778Z,1014.23
2022-10-29T03:02:16.085Z,1014.23
2022-10-29T03:03:15.726Z,1014.21
2022-10-29T03:04:16.486Z,1014.20
2022-10-29T03:05:15.719Z,1014.20
2022-10-29T03:06:15.949Z,1014.23
2022-10-29T03:07:15.701Z,1014.22
2022-10-29T03:08:15.890Z,1014.18
2022-10-29T03:09:15.669Z,1014.17
2022-10-29T03:10:16.036Z,1014.16
2022-10-29T03:11:15.640Z,1014.16
2022-10-29T03:12:15.829Z,1014.14
2022-10-29T03:13:15.628Z,1014.12
2022-10-29T03:14:15.649Z,1014.11
2022-10-29T03:15:15.606Z,1014.14
2022-10-29T03:16:15.720Z,1014.11
2022-10-29T03:17:15.569Z,1014.10
2022-10-29T03:18:15.871Z,1014.13
2022-10-29T03:19:15.574Z,1014.15
2022-10-29T03:20:15.632Z,1014.16
2022-10-29T03:21:15.521Z,1014.17
2022-10-29T03:22:15.752Z,1014.11
2022-10-29T03:23:15.552Z,1014.13
2022-10-29T03:24:15.834Z,1014.10
2022-10-29T03:25:15.492Z,1014.07
2022-10-29T03:26:15.766Z,1014.08
2022-10-29T03:27:15.463Z,1014.03
2022-10-29T03:28:15.477Z,1014.06
2022-10-29T03:29:15.466Z,1014.00
2022-10-29T03:30:16.324Z,1013.94
2022-10-29T03:31:15.414Z,1013.95
2022-10-29T03:32:15.464Z,1013.94
2022-10-29T03:33:15.393Z,1013.98
2022-10-29T03:34:15.978Z,1013.99
2022-10-29T03:35:15.375Z,1014.02
2022-10-29T03:36:15.540Z,1014.05
2022-10-29T03:37:15.345Z,1014.05
2022-10-29T03:38:15.514Z,1014.09
2022-10-29T03:39:15.566Z,1014.08
2022-10-29T03:40:15.679Z,1014.08
2022-10-29T03:41:15.307Z,1014.10
2022-10-29T03:42:15.454Z,1014.06
2022-10-29T03:43:15.311Z,1014.09
2022-10-29T03:44:15.769Z,1014.04
2022-10-29T03:45:15.257Z,1014.05
2022-10-29T03:46:15.426Z,1013.99
2022-10-29T03:47:15.237Z,1014.04
2022-10-29T03:48:15.667Z,1014.03
2022-10-29T03:49:15.225Z,1014.07
2022-10-29T03:50:16.168Z,1014.08
2022-10-29T03:51:15.200Z,1014.06
2022-10-29T03:52:15.340Z,1014.05
2022-10-29T03:53:15.198Z,1014.06
2022-10-29T03:54:15.268Z,1014.08
2022-10-29T03:55:15.164Z,1014.03
2022-10-29T03:56:15.218Z,1014.05
2022-10-29T03:57:15.120Z,1014.03
2022-10-29T03:58:15.370Z,1014.04
2022-10-29T03:59:15.106Z,1014.05
2022-10-29T04:00:15.369Z,1014.07
2022-10-29T04:01:15.118Z,1014.03
2022-10-29T04:02:15.480Z,1014.00
2022-10-29T04:03:15.071Z,1014.00
2022-10-29T04:04:15.184Z,1014.01
2022-10-29T04:05:15.031Z,1013.99
2022-10-29T04:06:15.301Z,1014.05
2022-10-29T04:07:15.012Z,1014.05
2022-10-29T04:08:15.363Z,1014.07
2022-10-29T04:09:14.992Z,1014.11
2022-10-29T04:10:15.058Z,1014.07
2022-10-29T04:11:14.973Z,1014.15
2022-10-29T04:12:15.120Z,1014.11
2022-10-29T04:13:14.965Z,1014.10
2022-10-29T04:14:15.143Z,1014.13
2022-10-29T04:15:14.916Z,1014.09
2022-10-29T04:16:15.146Z,1014.10
2022-10-29T04:17:14.895Z,1014.12
2022-10-29T04:18:15.227Z,1014.14
2022-10-29T04:19:14.875Z,1014.18
2022-10-29T04:20:31.784Z,1014.12
2022-10-29T04:26:34.640Z,1014.06
2022-10-29T04:28:42.571Z,1013.88
2022-10-29T04:29:15.827Z,1013.90
2022-10-29T04:30:15.555Z,1013.89
2022-10-29T04:31:14.727Z,1013.84
2022-10-29T04:32:15.001Z,1013.74
2022-10-29T04:33:14.978Z,1013.64
2022-10-29T04:34:14.783Z,1013.53
2022-10-29T04:35:14.698Z,1013.54
2022-10-29T04:36:16.221Z,1013.55
2022-10-29T04:37:14.667Z,1013.49
2022-10-29T04:38:15.063Z,1013.37
2022-10-29T04:39:17.172Z,1013.40
2022-10-29T04:40:14.664Z,1013.50
2022-10-29T04:41:14.635Z,1013.75
2022-10-29T04:42:14.681Z,1013.84
2022-10-29T04:43:14.613Z,1013.82
2022-10-29T04:44:14.803Z,1013.79
2022-10-29T04:45:14.576Z,1013.77
2022-10-29T04:46:15.269Z,1013.76
2022-10-29T04:47:14.558Z,1013.74
2022-10-29T04:48:14.593Z,1013.76
2022-10-29T04:49:14.647Z,1013.77
2022-10-29T04:50:14.744Z,1013.82
2022-10-29T04:51:14.503Z,1013.76
2022-10-29T04:52:14.592Z,1013.82
2022-10-29T04:53:14.505Z,1013.81
2022-10-29T04:54:15.076Z,1013.79
2022-10-29T04:55:14.463Z,1013.77
2022-10-29T04:56:14.457Z,1013.79
2022-10-29T04:57:14.469Z,1013.78
2022-10-29T04:58:14.745Z,1013.81
2022-10-29T04:59:14.438Z,1013.78
2022-10-29T05:00:17.919Z,1013.77
2022-10-29T05:01:14.573Z,1013.78
2022-10-29T05:02:14.721Z,1013.76
2022-10-29T05:03:14.377Z,1013.69
2022-10-29T05:04:15.045Z,1013.60
2022-10-29T05:05:14.360Z,1013.58
2022-10-29T05:06:14.636Z,1013.54
2022-10-29T05:07:14.327Z,1013.48
2022-10-29T05:08:14.511Z,1013.44
2022-10-29T05:09:14.458Z,1013.39
2022-10-29T05:10:14.343Z,1013.44
2022-10-29T05:11:14.287Z,1013.36
2022-10-29T05:12:14.607Z,1013.36
2022-10-29T05:13:14.288Z,1013.34
2022-10-29T05:14:14.338Z,1013.37
2022-10-29T05:15:14.237Z,1013.44
2022-10-29T05:16:14.503Z,1013.45
2022-10-29T05:17:14.219Z,1013.42
2022-10-29T05:18:14.451Z,1013.38
2022-10-29T05:19:14.193Z,1013.35
2022-10-29T05:20:14.470Z,1013.29
2022-10-29T05:21:14.169Z,1013.27
2022-10-29T05:22:15.021Z,1013.29
2022-10-29T05:23:14.161Z,1013.29
2022-10-29T05:24:14.140Z,1013.30
2022-10-29T05:25:14.120Z,1013.28
2022-10-29T05:26:14.459Z,1013.23
2022-10-29T05:27:14.103Z,1013.22
2022-10-29T05:28:15.012Z,1013.17
2022-10-29T05:29:14.092Z,1013.15
2022-10-29T05:30:14.226Z,1013.18
2022-10-29T05:31:14.061Z,1013.15
2022-10-29T05:32:14.315Z,1013.18
2022-10-29T05:33:14.049Z,1013.17
2022-10-29T05:34:14.467Z,1013.22
2022-10-29T05:35:14.023Z,1013.23
2022-10-29T05:36:14.416Z,1013.29
2022-10-29T05:37:13.994Z,1013.32
2022-10-29T05:38:14.363Z,1013.37
2022-10-29T05:39:14.055Z,1013.40
2022-10-29T05:40:14.348Z,1013.37
2022-10-29T05:41:13.955Z,1013.35
2022-10-29T05:42:13.946Z,1013.34
2022-10-29T05:43:13.950Z,1013.37
2022-10-29T05:44:13.986Z,1013.38
2022-10-29T05:45:13.919Z,1013.41
2022-10-29T05:46:14.068Z,1013.38
2022-10-29T05:47:13.886Z,1013.44
2022-10-29T05:48:14.389Z,1013.40
2022-10-29T05:49:13.878Z,1013.46
2022-10-29T05:50:13.875Z,1013.47
2022-10-29T05:51:13.838Z,1013.46
2022-10-29T05:52:14.059Z,1013.44
2022-10-29T05:53:13.836Z,1013.45
2022-10-29T05:54:13.932Z,1013.45
2022-10-29T05:55:13.801Z,1013.43
2022-10-29T05:56:13.811Z,1013.44
2022-10-29T05:57:13.773Z,1013.44
2022-10-29T05:58:15.638Z,1013.48
2022-10-29T05:59:13.749Z,1013.45
2022-10-29T06:00:13.849Z,1013.49
2022-10-29T06:01:13.789Z,1013.46
2022-10-29T06:02:13.892Z,1013.45
2022-10-29T06:03:13.794Z,1013.45
2022-10-29T06:04:13.855Z,1013.39
2022-10-29T06:05:13.693Z,1013.42
2022-10-29T06:06:14.033Z,1013.42
2022-10-29T06:07:13.674Z,1013.43
2022-10-29T06:08:13.852Z,1013.41
2022-10-29T06:09:13.657Z,1013.43
2022-10-29T06:10:13.823Z,1013.42
2022-10-29T06:11:13.624Z,1013.40
2022-10-29T06:12:13.702Z,1013.43
2022-10-29T06:13:13.611Z,1013.39
2022-10-29T06:14:13.613Z,1013.39
2022-10-29T06:15:13.583Z,1013.40
2022-10-29T06:16:14.071Z,1013.43
2022-10-29T06:17:13.555Z,1013.40
2022-10-29T06:18:13.617Z,1013.38
2022-10-29T06:19:13.575Z,1013.39
2022-10-29T06:20:13.785Z,1013.44
2022-10-29T06:21:13.516Z,1013.50
2022-10-29T06:22:13.757Z,1013.46
2022-10-29T06:23:13.504Z,1013.50
2022-10-29T06:24:14.168Z,1013.48
2022-10-29T06:25:13.467Z,1013.41
2022-10-29T06:26:13.513Z,1013.38
2022-10-29T06:27:13.448Z,1013.34
2022-10-29T06:28:13.449Z,1013.28
2022-10-29T06:29:13.439Z,1013.27
2022-10-29T06:30:13.511Z,1013.25
2022-10-29T06:31:13.468Z,1013.18
2022-10-29T06:32:13.506Z,1013.19
2022-10-29T06:33:13.378Z,1013.16
2022-10-29T06:34:13.560Z,1013.14
2022-10-29T06:35:13.369Z,1013.13
2022-10-29T06:36:13.376Z,1013.16
2022-10-29T06:37:13.350Z,1013.16
2022-10-29T06:38:13.348Z,1013.17
2022-10-29T06:39:13.533Z,1013.19
2022-10-29T06:40:13.313Z,1013.15
2022-10-29T06:41:13.360Z,1013.17
2022-10-29T06:42:13.491Z,1013.20
2022-10-29T06:43:13.271Z,1013.21
2022-10-29T06:44:13.421Z,1013.24
2022-10-29T06:45:13.249Z,1013.25
2022-10-29T06:46:13.280Z,1013.20
2022-10-29T06:47:13.343Z,1013.27
2022-10-29T06:48:14.589Z,1013.31
2022-10-29T06:49:13.225Z,1013.33
2022-10-29T06:50:13.264Z,1013.36
2022-10-29T06:51:13.224Z,1013.36
2022-10-29T06:52:13.214Z,1013.35
2022-10-29T06:53:13.174Z,1013.31
2022-10-29T06:54:13.285Z,1013.34
2022-10-29T06:55:13.157Z,1013.29
2022-10-29T06:56:13.569Z,1013.24
2022-10-29T06:57:13.503Z,1013.26
2022-10-29T06:58:14.439Z,1013.33
2022-10-29T06:59:14.954Z,1013.40
2022-10-29T07:00:13.674Z,1013.54
2022-10-29T07:01:13.118Z,1013.61
2022-10-29T07:02:13.388Z,1013.62
2022-10-29T07:03:13.100Z,1013.62
2022-10-29T07:04:13.697Z,1013.53
2022-10-29T07:05:13.325Z,1013.52
2022-10-29T07:06:13.824Z,1013.50
2022-10-29T07:07:13.449Z,1013.46
2022-10-29T07:08:13.451Z,1013.43
2022-10-29T07:09:13.134Z,1013.37
2022-10-29T07:10:13.289Z,1013.33
2022-10-29T07:11:12.990Z,1013.33
2022-10-29T07:12:12.960Z,1013.30
2022-10-29T07:13:12.959Z,1013.31
2022-10-29T07:14:13.067Z,1013.36
2022-10-29T07:15:12.922Z,1013.36
2022-10-29T07:16:13.032Z,1013.36
2022-10-29T07:17:13.041Z,1013.41
2022-10-29T07:18:13.022Z,1013.46
2022-10-29T07:19:12.941Z,1013.46
2022-10-29T07:20:12.880Z,1013.49
2022-10-29T07:21:12.869Z,1013.53
2022-10-29T07:22:12.862Z,1013.56
2022-10-29T07:23:12.991Z,1013.55
2022-10-29T07:24:13.032Z,1013.62
2022-10-29T07:25:12.852Z,1013.63
2022-10-29T07:26:12.921Z,1013.63
2022-10-29T07:27:12.820Z,1013.55
2022-10-29T07:28:12.910Z,1013.55
2022-10-29T07:29:12.772Z,1013.62
2022-10-29T07:30:13.146Z,1013.64
2022-10-29T07:31:12.785Z,1013.71
2022-10-29T07:32:12.816Z,1013.71
2022-10-29T07:33:12.734Z,1013.77
2022-10-29T07:34:12.847Z,1013.76
2022-10-29T07:35:12.746Z,1013.78
2022-10-29T07:36:12.914Z,1013.81
2022-10-29T07:37:12.787Z,1013.78
2022-10-29T07:38:12.818Z,1013.76
2022-10-29T07:39:12.722Z,1013.79
2022-10-29T07:40:13.865Z,1013.81
2022-10-29T07:41:12.720Z,1013.82
2022-10-29T07:42:12.755Z,1013.84
2022-10-29T07:43:12.777Z,1013.86
2022-10-29T07:44:12.714Z,1013.84
2022-10-29T07:45:12.694Z,1013.78
2022-10-29T07:46:12.968Z,1013.75
2022-10-29T07:47:12.710Z,1013.77
2022-10-29T07:48:12.686Z,1013.80
2022-10-29T07:49:12.552Z,1013.77
2022-10-29T07:50:13.022Z,1013.82
2022-10-29T07:51:12.671Z,1013.70
2022-10-29T07:52:12.971Z,1013.71
2022-10-29T07:53:12.518Z,1013.75
2022-10-29T07:54:14.788Z,1013.79
2022-10-29T07:55:12.624Z,1013.73
2022-10-29T07:56:12.590Z,1013.71
2022-10-29T07:57:12.583Z,1013.71
2022-10-29T07:58:12.657Z,1013.71
2022-10-29T07:59:12.543Z,1013.65
2022-10-29T08:00:12.621Z,1013.67
2022-10-29T08:01:12.575Z,1013.63
2022-10-29T08:02:13.725Z,1013.64
2022-10-29T08:03:12.614Z,1013.63
2022-10-29T08:04:12.444Z,1013.71
2022-10-29T08:05:12.477Z,1013.68
2022-10-29T08:06:12.459Z,1013.62
2022-10-29T08:07:12.434Z,1013.54
2022-10-29T08:08:12.472Z,1013.56
2022-10-29T08:09:12.399Z,1013.50
2022-10-29T08:10:12.839Z,1013.49
2022-10-29T08:11:12.367Z,1013.45
2022-10-29T08:12:12.420Z,1013.43
2022-10-29T08:13:12.397Z,1013.42
2022-10-29T08:14:12.667Z,1013.42
2022-10-29T08:15:12.351Z,1013.43
2022-10-29T08:16:12.477Z,1013.48
2022-10-29T08:17:12.280Z,1013.59
2022-10-29T08:18:12.289Z,1013.64
2022-10-29T08:19:12.317Z,1013.66
2022-10-29T08:20:12.353Z,1013.66
2022-10-29T08:21:12.278Z,1013.65
2022-10-29T08:22:12.311Z,1013.63
2022-10-29T08:23:12.289Z,1013.65
2022-10-29T08:24:12.223Z,1013.54
2022-10-29T08:25:12.259Z,1013.50
2022-10-29T08:26:12.242Z,1013.48
2022-10-29T08:27:12.319Z,1013.42
2022-10-29T08:28:12.355Z,1013.35
2022-10-29T08:29:12.185Z,1013.30
2022-10-29T08:30:12.183Z,1013.23
2022-10-29T08:31:12.963Z,1013.23
2022-10-29T08:32:12.336Z,1013.23
2022-10-29T08:33:12.261Z,1013.18
2022-10-29T08:34:12.163Z,1013.16
2022-10-29T08:35:12.128Z,1013.17
2022-10-29T08:36:12.399Z,1013.20
2022-10-29T08:37:12.142Z,1013.25
2022-10-29T08:38:12.327Z,1013.31
2022-10-29T08:39:12.075Z,1013.33
2022-10-29T08:40:12.131Z,1013.40
2022-10-29T08:41:12.137Z,1013.36
2022-10-29T08:42:12.094Z,1013.35
2022-10-29T08:43:12.134Z,1013.41
2022-10-29T08:44:12.171Z,1013.40
2022-10-29T08:45:12.046Z,1013.40
2022-10-29T08:46:12.027Z,1013.40
2022-10-29T08:47:12.005Z,1013.32
2022-10-29T08:48:12.087Z,1013.35
2022-10-29T08:49:12.119Z,1013.34
2022-10-29T08:50:12.312Z,1013.33
2022-10-29T08:51:11.968Z,1013.34
2022-10-29T08:52:12.158Z,1013.27
2022-10-29T08:53:22.844Z,1013.29
2022-10-29T08:55:12.817Z,1013.34
2022-10-29T08:56:11.891Z,1013.33
2022-10-29T08:57:11.928Z,1013.29
2022-10-29T08:58:11.919Z,1013.30
2022-10-29T08:59:11.881Z,1013.27
2022-10-29T09:00:11.927Z,1013.20
2022-10-29T09:01:12.001Z,1013.19
2022-10-29T09:02:11.830Z,1013.17
2022-10-29T09:03:11.861Z,1013.15
2022-10-29T09:04:11.980Z,1013.17
2022-10-29T09:05:11.756Z,1013.12
2022-10-29T09:06:11.903Z,1013.16
2022-10-29T09:07:11.781Z,1013.17
2022-10-29T09:08:11.778Z,1013.15
2022-10-29T09:09:12.749Z,1013.15
2022-10-29T09:10:11.693Z,1013.13
2022-10-29T09:11:11.685Z,1013.18
2022-10-29T09:12:11.654Z,1013.16
2022-10-29T09:13:11.883Z,1013.17
2022-10-29T09:14:11.970Z,1013.14
2022-10-29T09:15:11.766Z,1013.19
2022-10-29T09:16:12.826Z,1013.14
2022-10-29T09:17:14.648Z,1013.13
2022-10-29T09:18:11.654Z,1013.15
2022-10-29T09:19:11.790Z,1013.07
2022-10-29T09:20:11.760Z,1013.13
2022-10-29T09:21:11.736Z,1013.11
2022-10-29T09:22:11.740Z,1013.16
2022-10-29T09:23:11.748Z,1013.17
2022-10-29T09:24:11.578Z,1013.15
2022-10-29T09:25:11.648Z,1013.18
2022-10-29T09:26:11.542Z,1013.16
2022-10-29T09:27:11.560Z,1013.19
2022-10-29T09:28:11.554Z,1013.16
2022-10-29T09:29:11.580Z,1013.19
2022-10-29T09:30:11.448Z,1013.23
2022-10-29T09:31:11.549Z,1013.18
2022-10-29T09:32:11.664Z,1013.16
2022-10-29T09:33:11.601Z,1013.18
2022-10-29T09:34:11.619Z,1013.16
2022-10-29T09:35:11.403Z,1013.16
2022-10-29T09:36:11.435Z,1013.18
2022-10-29T09:37:11.483Z,1013.17
2022-10-29T09:38:11.468Z,1013.22
2022-10-29T09:39:11.422Z,1013.18
2022-10-29T09:40:11.939Z,1013.19
2022-10-29T09:41:11.421Z,1013.20
2022-10-29T09:42:11.340Z,1013.16
2022-10-29T09:43:11.474Z,1013.13
2022-10-29T09:44:11.470Z,1013.09
2022-10-29T09:45:11.329Z,1013.13
2022-10-29T09:46:11.474Z,1013.06
2022-10-29T09:47:11.296Z,1013.04
2022-10-29T09:48:11.266Z,1013.07
2022-10-29T09:49:11.234Z,1013.05
2022-10-29T09:50:11.596Z,1013.05
2022-10-29T09:51:11.278Z,1013.03
2022-10-29T09:52:11.483Z,1013.05
2022-10-29T09:53:11.407Z,1013.03
2022-10-29T09:54:11.227Z,1013.03
2022-10-29T09:55:11.275Z,1013.03
2022-10-29T09:56:11.152Z,1012.99
2022-10-29T09:57:11.131Z,1012.97
2022-10-29T09:58:11.505Z,1012.98
2022-10-29T09:59:11.119Z,1012.98
2022-10-29T10:00:11.104Z,1012.93
2022-10-29T10:01:11.199Z,1013.01
2022-10-29T10:02:11.481Z,1012.95
2022-10-29T10:03:11.268Z,1012.94
2022-10-29T10:04:11.253Z,1012.95
2022-10-29T10:05:11.165Z,1012.94
2022-10-29T10:06:11.670Z,1012.90
2022-10-29T10:07:11.135Z,1012.90
2022-10-29T10:08:11.270Z,1012.89
2022-10-29T10:09:11.075Z,1012.90
2022-10-29T10:10:10.996Z,1012.95
2022-10-29T10:11:11.054Z,1012.95
2022-10-29T10:12:11.154Z,1012.93
2022-10-29T10:13:15.930Z,1012.94
2022-10-29T10:14:12.190Z,1012.94
2022-10-29T10:15:10.936Z,1012.87
2022-10-29T10:16:11.016Z,1012.91
2022-10-29T10:17:11.038Z,1012.92
2022-10-29T10:18:11.391Z,1012.90
2022-10-29T10:19:10.927Z,1012.89
2022-10-29T10:20:10.894Z,1012.92
2022-10-29T10:21:10.981Z,1012.95
2022-10-29T10:22:13.908Z,1012.97
2022-10-29T10:23:12.060Z,1012.92
2022-10-29T10:24:10.873Z,1012.94
2022-10-29T10:25:10.852Z,1012.94
2022-10-29T10:26:10.935Z,1012.92
2022-10-29T10:27:10.926Z,1012.87
2022-10-29T10:28:10.813Z,1012.90
2022-10-29T10:29:10.854Z,1012.89
2022-10-29T10:30:10.792Z,1012.90
2022-10-29T10:31:10.972Z,1012.96
2022-10-29T10:32:10.894Z,1012.89
2022-10-29T10:33:10.955Z,1012.89
2022-10-29T10:34:10.764Z,1012.84
2022-10-29T10:35:10.794Z,1012.86
2022-10-29T10:36:10.978Z,1012.89
2022-10-29T10:37:10.812Z,1012.87
2022-10-29T10:38:10.698Z,1012.87
2022-10-29T10:39:10.723Z,1012.91
2022-10-29T10:40:10.803Z,1012.86
2022-10-29T10:41:10.951Z,1012.87
2022-10-29T10:42:10.747Z,1012.85
2022-10-29T10:43:10.778Z,1012.79
2022-10-29T10:44:10.638Z,1012.74
2022-10-29T10:45:10.639Z,1012.74
2022-10-29T10:46:10.768Z,1012.71
2022-10-29T10:47:10.717Z,1012.69
2022-10-29T10:48:11.107Z,1012.71
2022-10-29T10:49:10.629Z,1012.70
2022-10-29T10:50:10.568Z,1012.69
2022-10-29T10:51:10.552Z,1012.66
2022-10-29T10:52:10.590Z,1012.69
2022-10-29T10:53:10.640Z,1012.67
2022-10-29T10:54:10.635Z,1012.74
2022-10-29T10:55:10.628Z,1012.73
2022-10-29T10:56:10.787Z,1012.81
2022-10-29T10:57:10.595Z,1012.76
2022-10-29T10:58:10.526Z,1012.73
2022-10-29T10:59:10.485Z,1012.76
2022-10-29T11:00:11.055Z,1012.74
2022-10-29T11:01:10.501Z,1012.70
2022-10-29T11:02:10.666Z,1012.65
2022-10-29T11:03:10.701Z,1012.62
2022-10-29T11:04:10.487Z,1012.61
2022-10-29T11:05:10.495Z,1012.53
2022-10-29T11:06:10.419Z,1012.52
2022-10-29T11:07:10.381Z,1012.48
2022-10-29T11:08:10.478Z,1012.50
2022-10-29T11:09:10.405Z,1012.47
2022-10-29T11:10:10.371Z,1012.50
2022-10-29T11:11:10.412Z,1012.44
2022-10-29T11:12:10.517Z,1012.45
2022-10-29T11:13:10.320Z,1012.44
2022-10-29T11:14:10.312Z,1012.48
2022-10-29T11:15:10.343Z,1012.46
2022-10-29T11:16:10.313Z,1012.45
2022-10-29T11:17:10.405Z,1012.44
2022-10-29T11:18:10.417Z,1012.43
2022-10-29T11:19:10.246Z,1012.40
2022-10-29T11:20:10.254Z,1012.38
2022-10-29T11:21:10.218Z,1012.45
2022-10-29T11:22:10.618Z,1012.41
2022-10-29T11:23:10.204Z,1012.41
2022-10-29T11:24:10.275Z,1012.42
2022-10-29T11:25:10.171Z,1012.44
2022-10-29T11:26:10.334Z,1012.45
2022-10-29T11:27:10.337Z,1012.48
2022-10-29T11:28:10.225Z,1012.49
2022-10-29T11:29:10.127Z,1012.47
2022-10-29T11:30:10.175Z,1012.45
2022-10-29T11:31:10.110Z,1012.44
2022-10-29T11:32:10.172Z,1012.42
2022-10-29T11:33:10.205Z,1012.45
2022-10-29T11:34:10.499Z,1012.45
2022-10-29T11:35:10.058Z,1012.45
2022-10-29T11:36:10.100Z,1012.43
2022-10-29T11:37:10.061Z,1012.42
2022-10-29T11:38:10.317Z,1012.40
2022-10-29T11:39:10.014Z,1012.42
2022-10-29T11:40:10.033Z,1012.40
2022-10-29T11:41:09.994Z,1012.39
2022-10-29T11:42:09.994Z,1012.35
2022-10-29T11:43:09.992Z,1012.39
2022-10-29T11:44:10.041Z,1012.36
2022-10-29T11:45:09.953Z,1012.35
2022-10-29T11:46:10.012Z,1012.36
2022-10-29T11:47:09.954Z,1012.34
2022-10-29T11:48:10.139Z,1012.29
2022-10-29T11:49:10.134Z,1012.36
2022-10-29T11:50:09.951Z,1012.33
2022-10-29T11:51:09.963Z,1012.30
2022-10-29T11:52:09.890Z,1012.25
2022-10-29T11:53:09.879Z,1012.23
2022-10-29T11:54:09.865Z,1012.19
2022-10-29T11:55:09.845Z,1012.20
2022-10-29T11:56:09.862Z,1012.20
2022-10-29T11:57:09.862Z,1012.16
2022-10-29T11:58:09.838Z,1012.17
2022-10-29T11:59:09.799Z,1012.20
2022-10-29T12:00:09.818Z,1012.21
2022-10-29T12:01:09.779Z,1012.15
2022-10-29T12:02:09.894Z,1012.16
2022-10-29T12:03:09.770Z,1012.16
2022-10-29T12:05:09.747Z,1012.11
2022-10-29T12:06:09.763Z,1012.13
2022-10-29T12:07:09.724Z,1012.14
2022-10-29T12:08:09.774Z,1012.16
2022-10-29T12:09:09.695Z,1012.21
2022-10-29T12:10:09.713Z,1012.19
2022-10-29T12:11:09.674Z,1012.18
2022-10-29T12:12:09.676Z,1012.17
2022-10-29T12:13:09.680Z,1012.12
2022-10-29T12:14:09.745Z,1012.13
2022-10-29T12:15:09.761Z,1012.10